Malaysia Virtual Airlines Airport Information Service

Ujung Pandang / Hasanuddin

ICAO: WAAA Country: Indonesia
Latitude: -5.06163 Longitude: 119.554
Latest Arrival : AK330 (WMKK-WAAA) Latest Departure : AK331 (WAAA-WMKK)


WX CaptureLIVE
Data provided by noaa.gov | Fetched at 08:38:49

METAR : WAAA 160830Z 20006KT 9999 FEW019 31/24 Q1007 NOSIG

TAF : WAAA 160500Z 1606/1712 31010KT 9999 SCT019 TEMPO 1609/1611 28013G25KT 6000 -TSRA FEW018CB BECMG 1612/1614 11005KT 8000


Runway Data for WAAA
Data provided by openaviationdata.com

Runway ID Mag Var Hdg Length Elevation Surface ILS Freq ILS Id ILS Slope
13 1 129° 8215 ft 47 ft Asphalt 111.3 IUPG 2
31 1 309° 8215 ft 47 ft Asphalt 111.3 IMKS 3

Ujung Pandang / Hasanuddin, Indonesia
Use only for reference purposes



Not for navigational purposes.